createdAt,value
2018-04-16T00:00:05.198Z,4.00
2018-04-16T00:01:05.189Z,4.00
2018-04-16T00:02:05.179Z,4.00
2018-04-16T00:03:05.172Z,4.00
2018-04-16T00:04:05.165Z,4.00
2018-04-16T00:05:05.155Z,4.00
2018-04-16T00:06:05.149Z,4.00
2018-04-16T00:07:05.138Z,4.00
2018-04-16T00:08:05.129Z,4.00
2018-04-16T00:09:05.120Z,4.00
2018-04-16T00:10:05.112Z,4.00
2018-04-16T00:11:05.105Z,4.00
2018-04-16T00:12:05.094Z,4.00
2018-04-16T00:13:05.087Z,4.00
2018-04-16T00:14:05.078Z,4.00
2018-04-16T00:15:05.068Z,4.00
2018-04-16T00:16:05.060Z,4.00
2018-04-16T00:17:05.051Z,4.00
2018-04-16T00:18:05.043Z,4.00
2018-04-16T00:19:05.034Z,4.00
2018-04-16T00:20:05.027Z,4.00
2018-04-16T00:21:05.017Z,4.00
2018-04-16T00:22:05.008Z,4.00
2018-04-16T00:23:04.999Z,4.00
2018-04-16T00:24:04.993Z,4.00
2018-04-16T00:25:04.981Z,4.00
2018-04-16T00:26:04.973Z,4.00
2018-04-16T00:27:04.965Z,4.00
2018-04-16T00:28:04.955Z,4.00
2018-04-16T00:29:04.945Z,4.00
2018-04-16T00:30:04.937Z,4.00
2018-04-16T00:31:04.928Z,4.00
2018-04-16T00:32:04.920Z,4.00
2018-04-16T00:33:04.910Z,4.00
2018-04-16T00:34:04.902Z,4.00
2018-04-16T00:35:04.894Z,4.00
2018-04-16T00:36:04.885Z,4.00
2018-04-16T00:37:04.877Z,4.00
2018-04-16T00:38:04.868Z,4.00
2018-04-16T00:39:04.859Z,4.00
2018-04-16T00:40:04.850Z,4.00
2018-04-16T00:41:04.841Z,4.00
2018-04-16T00:42:04.833Z,4.00
2018-04-16T00:43:04.824Z,4.00
2018-04-16T00:44:04.816Z,4.00
2018-04-16T00:45:04.809Z,4.00
2018-04-16T00:46:04.798Z,4.00
2018-04-16T00:47:04.790Z,4.00
2018-04-16T00:48:04.782Z,4.00
2018-04-16T00:49:04.773Z,4.00
2018-04-16T00:50:04.767Z,4.00
2018-04-16T00:51:04.756Z,4.00
2018-04-16T00:52:04.748Z,4.00
2018-04-16T00:53:04.746Z,4.00
2018-04-16T00:54:04.732Z,4.00
2018-04-16T00:55:04.723Z,4.00
2018-04-16T00:56:04.716Z,4.00
2018-04-16T00:57:04.708Z,4.00
2018-04-16T00:58:04.698Z,4.00
2018-04-16T00:59:04.689Z,4.00
2018-04-16T01:00:04.681Z,4.00
2018-04-16T01:01:04.672Z,4.00
2018-04-16T01:02:04.664Z,4.00
2018-04-16T01:03:04.656Z,4.00
2018-04-16T01:04:04.648Z,4.00
2018-04-16T01:05:04.639Z,4.00
2018-04-16T01:06:04.633Z,4.00
2018-04-16T01:07:04.623Z,4.00
2018-04-16T01:08:04.615Z,4.00
2018-04-16T01:09:04.607Z,4.00
2018-04-16T01:10:04.598Z,4.00
2018-04-16T01:11:04.590Z,4.00
2018-04-16T01:12:04.582Z,4.00
2018-04-16T01:13:04.573Z,4.00
2018-04-16T01:14:04.565Z,4.00
2018-04-16T01:15:04.559Z,4.00
2018-04-16T01:16:04.550Z,4.00
2018-04-16T01:17:04.541Z,4.00
2018-04-16T01:18:04.533Z,4.00
2018-04-16T01:19:04.526Z,4.00
2018-04-16T01:20:04.519Z,4.00
2018-04-16T01:21:04.509Z,4.00
2018-04-16T01:22:04.503Z,4.00
2018-04-16T01:23:04.494Z,4.00
2018-04-16T01:24:04.486Z,4.00
2018-04-16T01:25:04.478Z,4.00
2018-04-16T01:26:04.470Z,4.00
2018-04-16T01:27:04.465Z,4.00
2018-04-16T01:28:04.456Z,4.00
2018-04-16T01:29:04.449Z,4.00
2018-04-16T01:30:04.442Z,4.00
2018-04-16T01:31:04.433Z,4.00
2018-04-16T01:32:04.427Z,4.00
2018-04-16T01:33:04.418Z,4.00
2018-04-16T01:34:04.411Z,4.00
2018-04-16T01:35:04.403Z,4.00
2018-04-16T01:36:04.396Z,4.00
2018-04-16T01:37:04.389Z,0.00
2018-04-16T01:38:04.379Z,4.00
2018-04-16T01:39:04.372Z,4.00
2018-04-16T01:40:04.365Z,4.00
2018-04-16T01:41:04.356Z,4.00
2018-04-16T01:42:04.349Z,4.00
2018-04-16T01:43:04.342Z,4.00
2018-04-16T01:44:04.334Z,4.00
2018-04-16T01:45:04.324Z,4.00
2018-04-16T01:46:04.317Z,4.00
2018-04-16T01:47:04.311Z,4.00
2018-04-16T01:48:04.302Z,4.00
2018-04-16T01:49:04.293Z,4.00
2018-04-16T01:50:04.286Z,4.00
2018-04-16T01:51:04.278Z,4.00
2018-04-16T01:52:04.271Z,4.00
2018-04-16T01:53:04.262Z,4.00
2018-04-16T01:54:04.256Z,4.00
2018-04-16T01:55:04.247Z,4.00
2018-04-16T01:56:04.239Z,4.00
2018-04-16T01:57:04.231Z,4.00
2018-04-16T01:58:04.223Z,4.00
2018-04-16T01:59:04.216Z,4.00
2018-04-16T02:00:04.209Z,4.00
2018-04-16T02:01:04.199Z,4.00
2018-04-16T02:02:04.192Z,4.00
2018-04-16T02:03:04.183Z,4.00
2018-04-16T02:04:04.176Z,4.00
2018-04-16T02:05:04.167Z,4.00
2018-04-16T02:06:04.160Z,4.00
2018-04-16T02:07:04.151Z,4.00
2018-04-16T02:08:04.147Z,4.00
2018-04-16T02:09:04.136Z,4.00
2018-04-16T02:10:04.125Z,4.00
2018-04-16T02:11:04.118Z,4.00
2018-04-16T02:12:04.114Z,4.00
2018-04-16T02:13:04.100Z,4.00
2018-04-16T02:14:04.145Z,4.00
2018-04-16T02:15:04.085Z,4.00
2018-04-16T02:16:04.076Z,4.00
2018-04-16T02:17:04.069Z,4.00
2018-04-16T02:18:04.060Z,4.00
2018-04-16T02:19:04.053Z,4.00
2018-04-16T02:20:04.045Z,4.00
2018-04-16T02:21:04.052Z,4.00
2018-04-16T02:22:04.028Z,4.00
2018-04-16T02:23:04.020Z,4.00
2018-04-16T02:24:04.011Z,4.00
2018-04-16T02:25:04.003Z,4.00
2018-04-16T02:26:03.995Z,4.00
2018-04-16T02:27:03.987Z,0.00
2018-04-16T02:28:03.979Z,0.00
2018-04-16T02:29:03.972Z,0.00
2018-04-16T02:30:03.963Z,0.00
2018-04-16T02:31:03.956Z,0.00
2018-04-16T02:32:03.948Z,0.00
2018-04-16T02:33:03.940Z,0.00
2018-04-16T02:34:03.932Z,0.00
2018-04-16T02:35:03.924Z,4.00
2018-04-16T02:36:03.918Z,4.00
2018-04-16T02:37:03.907Z,4.00
2018-04-16T02:38:03.900Z,4.00
2018-04-16T02:39:03.895Z,4.00
2018-04-16T02:40:03.885Z,4.00
2018-04-16T02:41:03.975Z,4.00
2018-04-16T02:42:03.867Z,4.00
2018-04-16T02:43:03.860Z,4.00
2018-04-16T02:44:03.851Z,4.00
2018-04-16T02:45:03.842Z,4.00
2018-04-16T02:46:03.836Z,4.00
2018-04-16T02:47:03.826Z,4.00
2018-04-16T02:48:03.819Z,4.00
2018-04-16T02:49:03.810Z,4.00
2018-04-16T02:50:03.803Z,4.00
2018-04-16T02:51:03.795Z,4.00
2018-04-16T02:52:03.785Z,4.00
2018-04-16T02:53:03.778Z,4.00
2018-04-16T02:54:03.768Z,4.00
2018-04-16T02:55:03.760Z,4.00
2018-04-16T02:56:03.753Z,4.00
2018-04-16T02:57:03.743Z,4.00
2018-04-16T02:58:03.737Z,4.00
2018-04-16T02:59:03.731Z,4.00
2018-04-16T03:00:03.720Z,4.00
2018-04-16T03:01:03.720Z,4.00
2018-04-16T03:02:03.702Z,4.00
2018-04-16T03:03:03.695Z,4.00
2018-04-16T03:04:03.687Z,4.00
2018-04-16T03:05:03.685Z,4.00
2018-04-16T03:06:03.675Z,4.00
2018-04-16T03:07:03.662Z,4.00
2018-04-16T03:08:03.655Z,4.00
2018-04-16T03:09:03.646Z,4.00
2018-04-16T03:10:03.637Z,4.00
2018-04-16T03:11:03.629Z,4.00
2018-04-16T03:12:03.621Z,4.00
2018-04-16T03:13:03.613Z,4.00
2018-04-16T03:14:03.605Z,4.00
2018-04-16T03:15:03.597Z,4.00
2018-04-16T03:16:03.589Z,4.00
2018-04-16T03:17:03.580Z,4.00
2018-04-16T03:18:03.576Z,4.00
2018-04-16T03:19:03.564Z,4.00
2018-04-16T03:20:03.556Z,4.00
2018-04-16T03:21:03.548Z,4.00
2018-04-16T03:22:03.539Z,4.00
2018-04-16T03:23:03.534Z,4.00
2018-04-16T03:24:03.524Z,4.00
2018-04-16T03:25:03.516Z,4.00
2018-04-16T03:26:03.508Z,4.00
2018-04-16T03:27:03.501Z,4.00
2018-04-16T03:28:03.492Z,4.00
2018-04-16T03:29:03.483Z,4.00
2018-04-16T03:30:03.476Z,4.00
2018-04-16T03:31:03.468Z,4.00
2018-04-16T03:32:03.459Z,4.00
2018-04-16T03:33:03.453Z,4.00
2018-04-16T03:34:03.443Z,4.00
2018-04-16T03:35:03.439Z,4.00
2018-04-16T03:36:03.427Z,4.00
2018-04-16T03:37:03.420Z,4.00
2018-04-16T03:38:03.411Z,4.00
2018-04-16T03:39:03.414Z,4.00
2018-04-16T03:40:03.395Z,4.00
2018-04-16T03:41:03.387Z,4.00
2018-04-16T03:42:03.379Z,4.00
2018-04-16T03:43:03.371Z,4.00
2018-04-16T03:44:03.363Z,4.00
2018-04-16T03:45:03.355Z,4.00
2018-04-16T03:46:03.347Z,4.00
2018-04-16T03:47:03.339Z,4.00
2018-04-16T03:48:03.331Z,4.00
2018-04-16T03:49:03.322Z,4.00
2018-04-16T03:50:03.315Z,4.00
2018-04-16T03:51:03.312Z,4.00
2018-04-16T03:52:03.300Z,4.00
2018-04-16T03:53:03.291Z,4.00
2018-04-16T03:54:03.283Z,4.00
2018-04-16T03:55:03.276Z,4.00
2018-04-16T03:56:03.268Z,4.00
2018-04-16T03:57:03.257Z,4.00
2018-04-16T03:58:03.250Z,4.00
2018-04-16T03:59:03.242Z,4.00
2018-04-16T04:00:03.237Z,4.00
2018-04-16T04:01:03.227Z,4.00
2018-04-16T04:02:03.217Z,4.00
2018-04-16T04:03:03.215Z,4.00
2018-04-16T04:04:03.203Z,4.00
2018-04-16T04:05:03.193Z,4.00
2018-04-16T04:06:03.186Z,4.00
2018-04-16T04:07:03.177Z,4.00
2018-04-16T04:08:03.169Z,0.00
2018-04-16T04:09:03.211Z,4.00
2018-04-16T04:10:03.152Z,4.00
2018-04-16T04:11:03.150Z,4.00
2018-04-16T04:12:03.136Z,4.00
2018-04-16T04:13:03.128Z,4.00
2018-04-16T04:14:03.121Z,8.00
2018-04-16T04:15:03.112Z,4.00
2018-04-16T04:16:03.104Z,8.00
2018-04-16T04:17:03.098Z,8.00
2018-04-16T04:18:03.087Z,8.00
2018-04-16T04:19:03.079Z,8.00
2018-04-16T04:20:03.073Z,12.00
2018-04-16T04:21:03.062Z,12.00
2018-04-16T04:22:03.054Z,16.00
2018-04-16T04:23:03.046Z,20.00
2018-04-16T04:24:03.038Z,24.00
2018-04-16T04:25:03.045Z,28.00
2018-04-16T04:26:03.022Z,32.00
2018-04-16T04:27:03.015Z,36.00
2018-04-16T04:28:03.006Z,40.00
2018-04-16T04:29:02.998Z,44.00
2018-04-16T04:30:02.989Z,48.00
2018-04-16T04:31:02.981Z,52.00
2018-04-16T04:32:02.974Z,56.00
2018-04-16T04:33:02.964Z,56.00
2018-04-16T04:34:02.959Z,60.00
2018-04-16T04:35:02.949Z,64.00
2018-04-16T04:36:02.940Z,60.00
2018-04-16T04:37:02.933Z,68.00
2018-04-16T04:38:02.925Z,72.00
2018-04-16T04:39:02.918Z,84.00
2018-04-16T04:40:02.910Z,104.00
2018-04-16T04:41:02.899Z,128.00
2018-04-16T04:42:02.891Z,156.00
2018-04-16T04:43:02.885Z,184.00
2018-04-16T04:44:02.875Z,212.00
2018-04-16T04:45:02.871Z,244.00
2018-04-16T04:46:02.859Z,272.00
2018-04-16T04:47:02.852Z,304.00
2018-04-16T04:48:02.843Z,336.00
2018-04-16T04:49:02.835Z,376.00
2018-04-16T04:50:02.828Z,420.00
2018-04-16T04:51:02.818Z,468.00
2018-04-16T04:52:02.810Z,524.00
2018-04-16T04:53:02.848Z,576.00
2018-04-16T04:54:02.793Z,628.00
2018-04-16T04:55:02.787Z,688.00
2018-04-16T04:56:02.779Z,752.00
2018-04-16T04:57:02.768Z,824.00
2018-04-16T04:58:02.760Z,888.00
2018-04-16T04:59:02.753Z,948.00
2018-04-16T05:00:02.748Z,1008.00
2018-04-16T05:01:02.736Z,1068.00
2018-04-16T05:02:02.727Z,1132.00
2018-04-16T05:03:02.719Z,1176.00
2018-04-16T05:04:02.714Z,1220.00
2018-04-16T05:05:02.705Z,1276.00
2018-04-16T05:06:02.694Z,1348.00
2018-04-16T05:07:02.686Z,1436.00
2018-04-16T05:08:02.678Z,1584.00
2018-04-16T05:09:02.670Z,1752.00
2018-04-16T05:10:02.661Z,1912.00
2018-04-16T05:11:02.653Z,2048.00
2018-04-16T05:12:02.645Z,2192.00
2018-04-16T05:13:02.635Z,2248.00
2018-04-16T05:14:02.628Z,2332.00
2018-04-16T05:15:02.620Z,2420.00
2018-04-16T05:16:02.612Z,2504.00
2018-04-16T05:17:02.607Z,2532.00
2018-04-16T05:18:02.596Z,2532.00
2018-04-16T05:19:02.595Z,2552.00
2018-04-16T05:20:02.582Z,2568.00
2018-04-16T05:21:02.572Z,2540.00
2018-04-16T05:22:02.565Z,2520.00
2018-04-16T05:23:02.559Z,2456.00
2018-04-16T05:24:02.548Z,2472.00
2018-04-16T05:25:02.542Z,2572.00
2018-04-16T05:26:02.534Z,2648.00
2018-04-16T05:27:02.526Z,2764.00
2018-04-16T05:28:02.522Z,2872.00
2018-04-16T05:29:02.509Z,3004.00
2018-04-16T05:30:02.502Z,3252.00
2018-04-16T05:31:02.494Z,3484.00
2018-04-16T05:32:02.495Z,3652.00
2018-04-16T05:33:02.479Z,3796.00
2018-04-16T05:34:02.471Z,3888.00
2018-04-16T05:35:02.564Z,4052.00
2018-04-16T05:36:02.457Z,4120.00
2018-04-16T05:37:02.449Z,4208.00
2018-04-16T05:38:02.442Z,4096.00
2018-04-16T05:39:02.436Z,4188.00
2018-04-16T05:40:02.427Z,4176.00
2018-04-16T05:41:02.419Z,4100.00
2018-04-16T05:42:02.415Z,4024.00
2018-04-16T05:43:02.405Z,3932.00
2018-04-16T05:44:02.399Z,4168.00
2018-04-16T05:45:02.389Z,4072.00
2018-04-16T05:46:02.390Z,3776.00
2018-04-16T05:47:02.375Z,3540.00
2018-04-16T05:48:02.368Z,3500.00
2018-04-16T05:49:02.359Z,3672.00
2018-04-16T05:50:02.354Z,3416.00
2018-04-16T05:51:02.345Z,3484.00
2018-04-16T05:52:02.339Z,3660.00
2018-04-16T05:53:02.330Z,3872.00
2018-04-16T05:54:02.324Z,4104.00
2018-04-16T05:55:02.317Z,4320.00
2018-04-16T05:56:02.309Z,4504.00
2018-04-16T05:57:02.302Z,4728.00
2018-04-16T05:58:02.297Z,4972.00
2018-04-16T05:59:02.288Z,4992.00
2018-04-16T06:00:02.282Z,5032.00
2018-04-16T06:01:02.273Z,5628.00
2018-04-16T06:02:02.266Z,5272.00
2018-04-16T06:03:02.261Z,5160.00
2018-04-16T06:04:02.257Z,5656.00
2018-04-16T06:05:02.246Z,6068.00
2018-04-16T06:06:02.244Z,6188.00
2018-04-16T06:07:02.232Z,6368.00
2018-04-16T06:08:02.225Z,6500.00
2018-04-16T06:09:02.217Z,6624.00
2018-04-16T06:10:02.210Z,6556.00
2018-04-16T06:11:02.209Z,6668.00
2018-04-16T06:12:02.197Z,6568.00
2018-04-16T06:13:02.189Z,6928.00
2018-04-16T06:14:02.184Z,7252.00
2018-04-16T06:15:02.177Z,7340.00
2018-04-16T06:16:02.172Z,7508.00
2018-04-16T06:17:02.166Z,7068.00
2018-04-16T06:18:02.156Z,7744.00
2018-04-16T06:19:02.162Z,7188.00
2018-04-16T06:20:02.145Z,7080.00
2018-04-16T06:21:02.136Z,7948.00
2018-04-16T06:22:02.128Z,8104.00
2018-04-16T06:23:02.122Z,8204.00
2018-04-16T06:24:02.117Z,7752.00
2018-04-16T06:25:02.109Z,8444.00
2018-04-16T06:26:02.103Z,8760.00
2018-04-16T06:27:02.095Z,9012.00
2018-04-16T06:28:02.091Z,9312.00
2018-04-16T06:29:02.083Z,9480.00
2018-04-16T06:30:02.076Z,9664.00
2018-04-16T06:31:02.070Z,10028.00
2018-04-16T06:32:02.063Z,10172.00
2018-04-16T06:33:02.056Z,10168.00
2018-04-16T06:34:02.051Z,10064.00
2018-04-16T06:35:02.045Z,9564.00
2018-04-16T06:36:02.037Z,9576.00
2018-04-16T06:37:02.050Z,9256.00
2018-04-16T06:38:02.024Z,9040.00
2018-04-16T06:39:02.020Z,9196.00
2018-04-16T06:40:02.014Z,9320.00
2018-04-16T06:41:02.007Z,9256.00
2018-04-16T06:42:01.999Z,9432.00
2018-04-16T06:43:01.993Z,9544.00
2018-04-16T06:44:01.987Z,9852.00
2018-04-16T06:45:01.982Z,10400.00
2018-04-16T06:46:01.975Z,10736.00
2018-04-16T06:47:01.968Z,10868.00
2018-04-16T06:48:01.963Z,10636.00
2018-04-16T06:49:01.956Z,11052.00
2018-04-16T06:50:01.950Z,11240.00
2018-04-16T06:51:01.944Z,11280.00
2018-04-16T06:52:01.938Z,12440.00
2018-04-16T06:53:01.931Z,12928.00
2018-04-16T06:54:01.926Z,11740.00
2018-04-16T06:55:01.919Z,11580.00
2018-04-16T06:56:01.913Z,11472.00
2018-04-16T06:57:01.907Z,11120.00
2018-04-16T06:58:01.902Z,11392.00
2018-04-16T06:59:01.901Z,12456.00
2018-04-16T07:00:01.891Z,15064.00
2018-04-16T07:01:01.915Z,17024.00
2018-04-16T07:02:01.914Z,15104.00
2018-04-16T07:03:01.872Z,19936.00
2018-04-16T07:04:01.876Z,19232.00
2018-04-16T07:05:01.863Z,16000.00
2018-04-16T07:06:01.861Z,17248.00
2018-04-16T07:07:01.847Z,23744.00
2018-04-16T07:08:01.840Z,33024.00
2018-04-16T07:09:01.868Z,27744.00
2018-04-16T07:10:01.827Z,23456.00
2018-04-16T07:11:01.827Z,33248.00
2018-04-16T07:12:01.832Z,31744.00
2018-04-16T07:13:01.811Z,27648.00
2018-04-16T07:14:01.807Z,29504.00
2018-04-16T07:15:01.800Z,30656.00
2018-04-16T07:16:01.799Z,33760.00
2018-04-16T07:17:01.787Z,25920.00
2018-04-16T07:18:01.784Z,26336.00
2018-04-16T07:19:01.780Z,25376.00
2018-04-16T07:20:01.814Z,27840.00
2018-04-16T07:21:01.767Z,29216.00
2018-04-16T07:22:01.763Z,29920.00
2018-04-16T07:23:01.762Z,29152.00
2018-04-16T07:24:01.753Z,24576.00
2018-04-16T07:25:01.749Z,25056.00
2018-04-16T07:26:01.744Z,26912.00
2018-04-16T07:27:01.747Z,29472.00
2018-04-16T07:28:01.737Z,27872.00
2018-04-16T07:29:01.732Z,24832.00
2018-04-16T07:30:01.729Z,29632.00
2018-04-16T07:31:01.729Z,27744.00
2018-04-16T07:32:01.720Z,30784.00
2018-04-16T07:33:01.717Z,32064.00
2018-04-16T07:34:01.714Z,32160.00
2018-04-16T07:35:01.709Z,33344.00
2018-04-16T07:36:01.706Z,36128.00
2018-04-16T07:37:01.703Z,36448.00
2018-04-16T07:38:01.698Z,33760.00
2018-04-16T07:39:01.696Z,35456.00
2018-04-16T07:40:01.693Z,31840.00
2018-04-16T07:41:01.690Z,39072.00
2018-04-16T07:42:01.689Z,35232.00
2018-04-16T07:43:01.718Z,35520.00
2018-04-16T07:44:01.684Z,29696.00
2018-04-16T07:45:01.682Z,24736.00
2018-04-16T07:46:01.677Z,29184.00
2018-04-16T07:47:01.679Z,36256.00
2018-04-16T07:48:01.676Z,40288.00
2018-04-16T07:49:01.681Z,46400.00
2018-04-16T07:50:01.669Z,40672.00
2018-04-16T07:51:01.665Z,44288.00
2018-04-16T07:52:01.664Z,37856.00
2018-04-16T07:53:01.661Z,40640.00
2018-04-16T07:54:01.665Z,37568.00
2018-04-16T07:55:01.658Z,41120.00
2018-04-16T07:56:01.659Z,34592.00
2018-04-16T07:57:01.656Z,33536.00
2018-04-16T07:58:01.656Z,37056.00
2018-04-16T07:59:01.651Z,50496.00
2018-04-16T08:00:01.652Z,44832.00
2018-04-16T08:01:01.648Z,42272.00
2018-04-16T08:02:01.647Z,47040.00
2018-04-16T08:03:01.647Z,49440.00
2018-04-16T08:04:01.648Z,42656.00
2018-04-16T08:05:01.645Z,43072.00
2018-04-16T08:06:01.644Z,44448.00
2018-04-16T08:07:01.644Z,47008.00
2018-04-16T08:08:01.644Z,46912.00
2018-04-16T08:09:01.644Z,44640.00
2018-04-16T08:10:01.655Z,37952.00
2018-04-16T08:11:01.643Z,30528.00
2018-04-16T08:12:01.643Z,36000.00
2018-04-16T08:13:01.644Z,37856.00
2018-04-16T08:14:01.644Z,38816.00
2018-04-16T08:15:01.648Z,43776.00
2018-04-16T08:16:01.686Z,43744.00
2018-04-16T08:17:01.643Z,19360.00
2018-04-16T08:18:01.646Z,43264.00
2018-04-16T08:19:01.643Z,39424.00
2018-04-16T08:20:01.643Z,39584.00
2018-04-16T08:21:01.643Z,36992.00
2018-04-16T08:22:01.647Z,38400.00
2018-04-16T08:23:01.644Z,41248.00
2018-04-16T08:24:01.645Z,43968.00
2018-04-16T08:25:01.643Z,42240.00
2018-04-16T08:26:01.644Z,38720.00
2018-04-16T08:27:01.686Z,46432.00
2018-04-16T08:28:01.650Z,46304.00
2018-04-16T08:29:01.643Z,44864.00
2018-04-16T08:30:01.645Z,49312.00
2018-04-16T08:31:01.646Z,46240.00
2018-04-16T08:32:01.648Z,43936.00
2018-04-16T08:33:01.646Z,46848.00
2018-04-16T08:34:01.649Z,50240.00
2018-04-16T08:35:01.648Z,50368.00
2018-04-16T08:36:01.650Z,52448.00
2018-04-16T08:37:01.653Z,54240.00
2018-04-16T08:38:01.653Z,57472.00
2018-04-16T08:39:01.655Z,62976.00
2018-04-16T08:40:01.663Z,61760.00
2018-04-16T08:41:01.660Z,67232.00
2018-04-16T08:42:01.662Z,50336.00
2018-04-16T08:43:01.666Z,63040.00
2018-04-16T08:44:01.670Z,67040.00
2018-04-16T08:45:01.673Z,61248.00
2018-04-16T08:46:01.676Z,67776.00
2018-04-16T08:47:01.732Z,61216.00
2018-04-16T08:48:01.688Z,61152.00
2018-04-16T08:49:01.689Z,57056.00
2018-04-16T08:50:01.691Z,55552.00
2018-04-16T08:51:01.696Z,54528.00
2018-04-16T08:52:01.700Z,40384.00
2018-04-16T08:53:01.707Z,49248.00
2018-04-16T08:54:01.708Z,54944.00
2018-04-16T08:55:01.712Z,53280.00
2018-04-16T08:56:01.715Z,52768.00
2018-04-16T08:57:01.719Z,51488.00
2018-04-16T08:58:01.722Z,26624.00
2018-04-16T08:59:01.725Z,54208.00
2018-04-16T09:00:01.729Z,56448.00
2018-04-16T09:01:01.733Z,56960.00
2018-04-16T09:02:01.737Z,56544.00
2018-04-16T09:03:01.738Z,53152.00
2018-04-16T09:04:01.744Z,54080.00
2018-04-16T09:05:01.851Z,33664.00
2018-04-16T09:06:01.751Z,43008.00
2018-04-16T09:07:01.755Z,42528.00
2018-04-16T09:08:01.758Z,27328.00
2018-04-16T09:09:01.760Z,55488.00
2018-04-16T09:10:01.764Z,60640.00
2018-04-16T09:11:01.766Z,64832.00
2018-04-16T09:12:01.775Z,62368.00
2018-04-16T09:13:01.776Z,60704.00
2018-04-16T09:14:01.784Z,60096.00
2018-04-16T09:15:01.783Z,56992.00
2018-04-16T09:16:01.789Z,61696.00
2018-04-16T09:17:01.791Z,58880.00
2018-04-16T09:18:01.794Z,66528.00
2018-04-16T09:19:01.800Z,59488.00
2018-04-16T09:20:01.805Z,51168.00
2018-04-16T09:21:01.810Z,58048.00
2018-04-16T09:22:01.814Z,62944.00
2018-04-16T09:23:01.821Z,74112.00
2018-04-16T09:24:01.826Z,59840.00
2018-04-16T09:25:01.834Z,69280.00
2018-04-16T09:26:01.842Z,65056.00
2018-04-16T09:27:01.847Z,68960.00
2018-04-16T09:28:01.854Z,72864.00
2018-04-16T09:29:01.863Z,71616.00
2018-04-16T09:30:01.868Z,72256.00
2018-04-16T09:31:01.876Z,74016.00
2018-04-16T09:32:01.882Z,74176.00
2018-04-16T09:33:01.893Z,72160.00
2018-04-16T09:34:01.898Z,77216.00
2018-04-16T09:35:01.907Z,73056.00
2018-04-16T09:36:01.917Z,75328.00
2018-04-16T09:37:01.923Z,78400.00
2018-04-16T09:38:01.971Z,76576.00
2018-04-16T09:39:01.942Z,67168.00
2018-04-16T09:40:01.952Z,72576.00
2018-04-16T09:41:02.010Z,73472.00
2018-04-16T09:42:01.968Z,15900.00
2018-04-16T09:43:01.979Z,21696.00
2018-04-16T09:44:01.989Z,24704.00
2018-04-16T09:45:01.997Z,85152.00
2018-04-16T09:46:02.004Z,85920.00
2018-04-16T09:47:02.014Z,78688.00
2018-04-16T09:48:02.022Z,15196.00
2018-04-16T09:49:02.031Z,12080.00
2018-04-16T09:50:02.046Z,14128.00
2018-04-16T09:51:02.045Z,47936.00
2018-04-16T09:52:02.056Z,22528.00
2018-04-16T09:53:02.059Z,17184.00
2018-04-16T09:54:02.068Z,17184.00
2018-04-16T09:55:02.069Z,22976.00
2018-04-16T09:56:02.078Z,57792.00
2018-04-16T09:57:02.078Z,25184.00
2018-04-16T09:58:02.082Z,24640.00
2018-04-16T09:59:02.088Z,60096.00
2018-04-16T10:00:02.091Z,72224.00
2018-04-16T10:01:02.097Z,17952.00
2018-04-16T10:02:02.097Z,17216.00
2018-04-16T10:03:02.101Z,18368.00
2018-04-16T10:04:02.104Z,17184.00
2018-04-16T10:05:02.105Z,19648.00
2018-04-16T10:06:02.163Z,36032.00
2018-04-16T10:07:02.111Z,39168.00
2018-04-16T10:08:02.111Z,16308.00
2018-04-16T10:09:02.114Z,17664.00
2018-04-16T10:10:02.114Z,13600.00
2018-04-16T10:11:02.117Z,23168.00
2018-04-16T10:12:02.118Z,52352.00
2018-04-16T10:13:02.117Z,18048.00
2018-04-16T10:14:02.119Z,31776.00
2018-04-16T10:15:02.120Z,32576.00
2018-04-16T10:16:02.122Z,22464.00
2018-04-16T10:17:02.125Z,93856.00
2018-04-16T10:18:02.167Z,99424.00
2018-04-16T10:19:02.127Z,101280.00
2018-04-16T10:20:02.131Z,22400.00
2018-04-16T10:21:02.135Z,31552.00
2018-04-16T10:22:02.139Z,107200.00
2018-04-16T10:23:02.143Z,92320.00
2018-04-16T10:24:02.147Z,35008.00
2018-04-16T10:25:02.153Z,66144.00
2018-04-16T10:26:02.156Z,95232.00
2018-04-16T10:27:02.161Z,87168.00
2018-04-16T10:28:02.167Z,80576.00
2018-04-16T10:29:02.171Z,26880.00
2018-04-16T10:30:02.181Z,78272.00
2018-04-16T10:31:02.185Z,51552.00
2018-04-16T10:32:02.193Z,93248.00
2018-04-16T10:33:02.202Z,21696.00
2018-04-16T10:34:02.207Z,17760.00
2018-04-16T10:35:02.212Z,81440.00
2018-04-16T10:36:02.219Z,20864.00
2018-04-16T10:37:02.224Z,74592.00
2018-04-16T10:38:02.229Z,74304.00
2018-04-16T10:39:02.235Z,74112.00
2018-04-16T10:40:02.243Z,74304.00
2018-04-16T10:41:02.253Z,79520.00
2018-04-16T10:42:02.255Z,79168.00
2018-04-16T10:43:02.264Z,80768.00
2018-04-16T10:44:02.271Z,22432.00
2018-04-16T10:45:02.279Z,24768.00
2018-04-16T10:46:02.286Z,81952.00
2018-04-16T10:47:02.295Z,83232.00
2018-04-16T10:48:02.303Z,22656.00
2018-04-16T10:49:02.308Z,23392.00
2018-04-16T10:50:02.315Z,25632.00
2018-04-16T10:51:02.322Z,32288.00
2018-04-16T10:52:02.329Z,20992.00
2018-04-16T10:53:02.335Z,17152.00
2018-04-16T10:54:02.343Z,70432.00
2018-04-16T10:55:02.346Z,72768.00
2018-04-16T10:56:02.352Z,77664.00
2018-04-16T10:57:02.357Z,72480.00
2018-04-16T10:58:02.363Z,72416.00
2018-04-16T10:59:02.370Z,70112.00
2018-04-16T11:00:02.379Z,70624.00
2018-04-16T11:01:02.384Z,70336.00
2018-04-16T11:02:02.392Z,69312.00
2018-04-16T11:03:02.401Z,70144.00
2018-04-16T11:04:02.410Z,73344.00
2018-04-16T11:05:02.519Z,74240.00
2018-04-16T11:06:02.427Z,78368.00
2018-04-16T11:07:02.439Z,29952.00
2018-04-16T11:08:02.446Z,73056.00
2018-04-16T11:09:02.456Z,48064.00
2018-04-16T11:10:02.476Z,21216.00
2018-04-16T11:11:02.477Z,19392.00
2018-04-16T11:12:02.485Z,19552.00
2018-04-16T11:13:02.527Z,71648.00
2018-04-16T11:14:02.502Z,73472.00
2018-04-16T11:15:02.512Z,72928.00
2018-04-16T11:16:02.520Z,72416.00
2018-04-16T11:17:02.526Z,72768.00
2018-04-16T11:18:02.536Z,69952.00
2018-04-16T11:19:02.545Z,71136.00
2018-04-16T11:20:02.554Z,71104.00
2018-04-16T11:21:02.564Z,64832.00
2018-04-16T11:22:02.575Z,74976.00
2018-04-16T11:23:02.685Z,50752.00
2018-04-16T11:24:02.595Z,22016.00
2018-04-16T11:25:02.609Z,15056.00
2018-04-16T11:26:02.615Z,15048.00
2018-04-16T11:27:02.624Z,16124.00
2018-04-16T11:28:02.631Z,43424.00
2018-04-16T11:29:02.637Z,14132.00
2018-04-16T11:30:02.646Z,13768.00
2018-04-16T11:31:02.652Z,67200.00
2018-04-16T11:32:02.658Z,60672.00
2018-04-16T11:33:02.663Z,60096.00
2018-04-16T11:34:02.669Z,64128.00
2018-04-16T11:35:02.677Z,62016.00
2018-04-16T11:36:02.681Z,60800.00
2018-04-16T11:37:02.687Z,64256.00
2018-04-16T11:38:02.776Z,17728.00
2018-04-16T11:39:02.702Z,19264.00
2018-04-16T11:40:02.710Z,65888.00
2018-04-16T11:41:02.715Z,19328.00
2018-04-16T11:42:02.723Z,35136.00
2018-04-16T11:43:02.741Z,59776.00
2018-04-16T11:44:02.735Z,32064.00
2018-04-16T11:45:02.744Z,58240.00
2018-04-16T11:46:02.743Z,57952.00
2018-04-16T11:47:02.751Z,47936.00
2018-04-16T11:48:02.756Z,59520.00
2018-04-16T11:49:02.760Z,57216.00
2018-04-16T11:50:02.768Z,56416.00
2018-04-16T11:51:02.775Z,59616.00
2018-04-16T11:52:02.781Z,57184.00
2018-04-16T11:53:02.788Z,57280.00
2018-04-16T11:54:02.796Z,28480.00
2018-04-16T11:55:02.804Z,40576.00
2018-04-16T11:56:02.810Z,61248.00
2018-04-16T11:57:02.820Z,62656.00
2018-04-16T11:58:02.824Z,21472.00
2018-04-16T11:59:02.830Z,64320.00
2018-04-16T12:00:02.838Z,59840.00
2018-04-16T12:01:02.844Z,62784.00
2018-04-16T12:02:02.851Z,35520.00
2018-04-16T12:03:02.859Z,62848.00
2018-04-16T12:04:02.866Z,55008.00
2018-04-16T12:05:02.874Z,12116.00
2018-04-16T12:06:02.882Z,12252.00
2018-04-16T12:07:02.888Z,12204.00
2018-04-16T12:08:02.893Z,12576.00
2018-04-16T12:09:02.898Z,12888.00
2018-04-16T12:10:02.903Z,61984.00
2018-04-16T12:11:02.907Z,53216.00
2018-04-16T12:12:02.913Z,38464.00
2018-04-16T12:13:02.915Z,30336.00
2018-04-16T12:14:02.920Z,27072.00
2018-04-16T12:15:02.928Z,25888.00
2018-04-16T12:16:02.930Z,23712.00
2018-04-16T12:17:02.937Z,22656.00
2018-04-16T12:18:02.949Z,19936.00
2018-04-16T12:19:02.948Z,17632.00
2018-04-16T12:20:02.955Z,16768.00